Friday, October 19, 2018, 11:56 AM EDT
Back to Local

K1P1, Plymouth, Plymouth Municipal Airport

Location: Plymouth, NH, United States Lat: 43.779
Local Time: 11:56 AM EDT (15:56 GMT) Lon: -71.754
Time Zone: US/Eastern Elev: 505 ft

Show me the last for .
Show Decoded

2018-10-19 11:35 METAR K1P1 191535Z AUTO 00000KT 10SM CLR 08/00 A3008 RMK AO2 T00790000 =
2018-10-19 11:15 METAR K1P1 191515Z AUTO 00000KT 10SM CLR 07/00 A3009 RMK AO2 T00701004 =
2018-10-19 10:55 METAR K1P1 191455Z AUTO 00000KT 10SM CLR 07/00 A3010 RMK AO2 T00671002 =
2018-10-19 10:35 METAR K1P1 191435Z AUTO 00000KT 10SM CLR 05/M01 A3011 RMK AO2 T00531008 =
2018-10-19 10:15 METAR K1P1 191415Z AUTO 00000KT 10SM CLR 05/00 A3012 RMK AO2 T00451005 =
2018-10-19 09:55 METAR K1P1 191355Z AUTO 00000KT 10SM CLR 03/M01 A3013 RMK AO2 T00301012 =
2018-10-19 09:35 METAR K1P1 191335Z AUTO 00000KT 10SM CLR 02/M02 A3014 RMK AO2 T00151017 =
2018-10-19 09:15 METAR K1P1 191315Z AUTO 00000KT 10SM CLR 00/M02 A3015 RMK AO2 T00001020 =
2018-10-19 08:55 METAR K1P1 191255Z AUTO 00000KT 10SM CLR M01/M02 A3016 RMK AO2 T10081023 =
2018-10-19 08:35 METAR K1P1 191235Z AUTO 00000KT 10SM CLR M02/M02 A3016 RMK AO2 T10161023 =
2018-10-19 08:15 METAR K1P1 191215Z AUTO 00000KT 10SM CLR M03/M03 A3016 RMK AO2 T10261031 =
2018-10-19 07:55 METAR K1P1 191155Z AUTO 00000KT 10SM CLR M04/M04 A3017 RMK AO2 T10361041 11018
                 21045 =
2018-10-19 07:35 METAR K1P1 191135Z AUTO 00000KT 10SM CLR M04/M05 A3016 RMK AO2 T10431048 =
2018-10-19 07:15 METAR K1P1 191115Z AUTO 00000KT 10SM CLR M04/M04 A3017 RMK AO2 T10411045 =
2018-10-19 06:55 METAR K1P1 191055Z AUTO 00000KT 10SM CLR M04/M05 A3017 RMK AO2 T10421047 =
2018-10-19 06:35 METAR K1P1 191035Z AUTO 00000KT 10SM CLR M04/M04 A3017 RMK AO2 T10381043 =
2018-10-19 06:15 METAR K1P1 191015Z AUTO 00000KT 10SM CLR M04/M05 A3017 RMK AO2 T10411046 =
2018-10-19 05:55 METAR K1P1 190955Z AUTO 00000KT 10SM CLR M04/M04 A3017 RMK AO2 T10371042 =
2018-10-19 05:35 METAR K1P1 190935Z AUTO 00000KT 10SM CLR M04/M04 A3017 RMK AO2 T10361043 =
2018-10-19 05:15 METAR K1P1 190915Z AUTO 00000KT 10SM CLR M03/M04 A3017 RMK AO2 T10351042 =
2018-10-19 04:55 METAR K1P1 190855Z AUTO 00000KT 10SM CLR M03/M04 A3017 RMK AO2 T10321041 =
2018-10-19 04:35 METAR K1P1 190835Z AUTO 00000KT 10SM BKN080 M03/M03 A3018 RMK AO2 T10261035 =
2018-10-19 04:15 METAR K1P1 190815Z AUTO 00000KT 10SM OVC080 M02/M03 A3018 RMK AO2 T10241035 =
2018-10-19 03:55 METAR K1P1 190755Z AUTO 00000KT 10SM OVC080 M02/M03 A3018 RMK AO2 T10231033 =
2018-10-19 03:15 METAR K1P1 190715Z AUTO 00000KT 10SM BKN044 BKN090 M02/M04 A3019 RMK AO2
                 T10251036 =
2018-10-19 02:55 METAR K1P1 190655Z AUTO 00000KT 10SM OVC046 M02/M03 A3020 RMK AO2 T10201035 =
2018-10-19 02:35 METAR K1P1 190635Z AUTO 00000KT 10SM BKN050 OVC095 M02/M04 A3020 RMK AO2
                 T10231037 =
2018-10-19 02:15 METAR K1P1 190615Z AUTO 00000KT 10SM SCT050 SCT080 OVC095 M02/M04 A3021 RMK AO2
                 T10201037 =
2018-10-19 01:55 METAR K1P1 190555Z AUTO 00000KT 10SM SCT070 OVC085 M02/M04 A3021 RMK AO2
                 T10181040 10006 21023 =
2018-10-19 01:15 METAR K1P1 190515Z AUTO 00000KT 10SM OVC070 M01/M05 A3021 RMK AO2 T10131046 =
2018-10-19 00:55 METAR K1P1 190455Z AUTO 00000KT 10SM OVC070 M01/M04 A3021 RMK AO2 T10151045 =
2018-10-19 00:35 METAR K1P1 190435Z AUTO 00000KT 10SM OVC070 M02/M05 A3022 RMK AO2 T10181046 =
2018-10-19 00:15 METAR K1P1 190415Z AUTO 00000KT 10SM BKN070 BKN085 OVC110 M02/M05 A3021 RMK AO2
                 T10201050 =
2018-10-18 23:55 METAR K1P1 190355Z AUTO 00000KT 10SM SCT070 BKN085 OVC110 M02/M05 A3022 RMK AO2
                 T10201052 400501023 =
2018-10-18 23:35 METAR K1P1 190335Z AUTO 00000KT 10SM SCT070 M02/M05 A3022 RMK AO2 T10201052 =
2018-10-18 23:15 METAR K1P1 190315Z AUTO 26003KT 10SM CLR M02/M05 A3022 RMK AO2 T10221051 =
2018-10-18 22:55 METAR K1P1 190255Z AUTO 26003KT 10SM CLR M02/M05 A3021 RMK AO2 T10201053 =
2018-10-18 22:35 METAR K1P1 190235Z AUTO 27004KT 10SM CLR M02/M05 A3022 RMK AO2 T10201053 =
2018-10-18 22:15 METAR K1P1 190215Z AUTO 27004KT 10SM CLR M02/M05 A3021 RMK AO2 T10171053 =
2018-10-18 21:55 METAR K1P1 190155Z AUTO 26003KT 10SM CLR M01/M05 A3021 RMK AO2 T10151055 =
2018-10-18 21:35 METAR K1P1 190135Z AUTO 27004KT 10SM CLR 00/M06 A3021 RMK AO2 T10041060 =
2018-10-18 21:15 METAR K1P1 190115Z AUTO 27003KT 10SM CLR M01/M05 A3021 RMK AO2 T10111050 =
2018-10-18 20:55 METAR K1P1 190055Z AUTO 27003KT 10SM CLR 00/M06 A3021 RMK AO2 T00001062 =
2018-10-18 20:35 METAR K1P1 190035Z AUTO 28003KT 10SM CLR 00/M06 A3021 RMK AO2 T00001064 =
2018-10-18 20:15 METAR K1P1 190015Z AUTO 00000KT 10SM CLR 00/M06 A3021 RMK AO2 T00021062 =
2018-10-18 19:55 METAR K1P1 182355Z AUTO 00000KT 10SM CLR 00/M06 A3021 RMK AO2 T00021064 10050
                 20000 =
2018-10-18 19:35 METAR K1P1 182335Z AUTO 00000KT 10SM CLR 00/M06 A3021 RMK AO2 T00011065 =
2018-10-18 19:15 METAR K1P1 182315Z AUTO 00000KT 10SM CLR 01/M07 A3021 RMK AO2 T00101073 =
2018-10-18 18:55 METAR K1P1 182255Z AUTO 00000KT 10SM CLR 01/M07 A3021 RMK AO2 T00131071 =
2018-10-18 18:35 METAR K1P1 182235Z AUTO 00000KT 10SM CLR 02/M09 A3020 RMK AO2 T00241087 =
2018-10-18 18:15 METAR K1P1 182215Z AUTO 33005KT 10SM CLR 02/M09 A3019 RMK AO2 T00241086 =
2018-10-18 17:55 METAR K1P1 182155Z AUTO 00000KT 10SM CLR 03/M09 A3019 RMK AO2 T00281086 =
2018-10-18 17:35 METAR K1P1 182135Z AUTO 30008KT 10SM CLR 03/M09 A3018 RMK AO2 T00341087 =
2018-10-18 17:15 METAR K1P1 182115Z AUTO 29007KT 10SM CLR 04/M09 A3018 RMK AO2 T00421087 =
2018-10-18 16:55 METAR K1P1 182055Z AUTO 28008G17KT 10SM CLR 04/M09 A3017 RMK AO2 T00441086 =
2018-10-18 16:35 METAR K1P1 182035Z AUTO 31007G15KT 270V330 10SM CLR 04/M09 A3017 RMK AO2
                 T00441086 =
2018-10-18 16:15 METAR K1P1 182015Z AUTO 31014G24KT 10SM CLR 05/M08 A3017 RMK AO2 T00451085 =
2018-10-18 15:55 METAR K1P1 181955Z AUTO 30011G18KT 10SM CLR 05/M08 A3017 RMK AO2 T00461081 =
2018-10-18 15:33 METAR K1P1 181935Z AUTO 31010G17KT 270V330 10SM SCT060 05/M08 A3017 RMK AO2
                 T00481080 =
2018-10-18 15:15 METAR K1P1 181915Z AUTO 30010G21KT 10SM BKN060 05/M09 A3017 RMK AO2 T00461086 =
2018-10-18 14:55 METAR K1P1 181855Z AUTO 28011G24KT 10SM BKN060 05/M08 A3017 RMK AO2 T00481081 =
2018-10-18 14:35 METAR K1P1 181835Z AUTO 30011G21KT 270V330 10SM BKN050 05/M07 A3017 RMK AO2
                 T00451074 =
2018-10-18 14:15 METAR K1P1 181815Z AUTO 28012G23KT 10SM BKN050 BKN070 04/M08 A3018 RMK AO2
                 T00421077 =
2018-10-18 13:55 METAR K1P1 181755Z AUTO 29013G22KT 10SM BKN050 BKN070 04/M07 A3018 RMK AO2
                 T00411073 10042 20000 =
2018-10-18 13:35 METAR K1P1 181735Z AUTO 30009G19KT 10SM BKN050 04/M07 A3017 RMK AO2 T00391073 =
2018-10-18 13:15 METAR K1P1 181715Z AUTO 30015G23KT 10SM OVC050 04/M07 A3018 RMK AO2 T00351070 =
2018-10-18 12:55 METAR K1P1 181655Z AUTO 28008G24KT 250V320 10SM BKN050 OVC060 03/M08 A3018 RMK
                 AO2 T00301078 =
2018-10-18 12:35 METAR K1P1 181635Z AUTO 28010G23KT 240V300 10SM OVC050 04/M07 A3018 RMK AO2
                 T00351070 =
2018-10-18 12:15 METAR K1P1 181615Z AUTO 28014G24KT 10SM OVC050 03/M07 A3018 RMK AO2 T00281072 =

Support USWX by starting your Amazon purchase here.